Libby Airport (S59)
Libby, MT
Field Elevation: 2605
Lat: 48°17.03N  Long: 115°29.41W
CTAF/Unicom Freq: 122.8000
   
    
Weather Advisories
2017-10-19   17:52 Z
Altimeter 29.60" Hg
Wind 210° @ 9 KT
Gusts 14 KT
Visibility 10 SM
Temperature 17° C (63° F)
Dewpoint -1° C (30° F)
Relative Humidity 29%
Density Altitude 3,700 feet
Condensation Altitude 11,500 feet
Wind and Runways
Indicated Runway = 15
Headwind = 4 kt
Crosswind = 8 kt
History
 
 
 
More Info
All DigiWx sites map
Weather Radar
NOAA Forecast
 
Airport IQ 5010
(88M) Eureka
(6S5) Ravalli County
 
about DigiWx
 
FAA Disclaimer: The data displayed is for advisory purposes only and is not to be used for flight planning or operations. For official data, please call (not available) to hear the current automated AWOS voice message.
  METAR S59 191752Z AUTO 21009G14KT 10 SM 17/M01 A2960